Ahmadi, Kuwait

6:55 PM AST on July 23, 2016 (GMT +0300)
Kuwait International | | Change Station

Elev 180 ft 29.22 °N, 47.98 °E | Updated 55 minutes ago

Clear
Clear
111 °F
Feels Like 111 °F
N
24
Wind Variable Wind from NNW

Today
High -- | Low -- °F
--% Chance of Precip.
Yesterday
High -- | Low -- °F
Precip. -- in
Pressure 29.39 in
Visibility 1.2 miles
Clouds
Dew Point 39 °F
Humidity 9%
Rainfall 0.00 in
Snow Depth Not available.
5:03 AM 6:44 PM
Waning Gibbous, 84% visible
METAR OKBK 231500Z 34021KT 2000 +BLDU NSC 44/04 Q0995 NOSIG
Pressure 29.39 in
Visibility 1.2 miles
Clouds
Dew Point 39 °F
Humidity 9%
Rainfall 0.00 in
Snow Depth Not available.
5:03 AM 6:44 PM
Waning Gibbous, 84% visible
METAR OKBK 231500Z 34021KT 2000 +BLDU NSC 44/04 Q0995 NOSIG

10-Day Weather Forecast

No radar image for this location.
×

Almanac

Astronomy

Jul. 23, 2016 Rise Set
Actual Time
Civil Twilight
Nautical Twilight
Astronomical Twilight
Moon
Length of Visible Light
Length of Day
Tomorrow will be .
, % of the Moon is Illuminated

Today's Extremes

Country Highs Country Lows

Community

WunderPhotos

Upload Photos

1,926,848 photos uploaded!

WunderBlog® & News

Nearby

Air Quality

  Air Quality AQ Index Pollutant
Not available.

Snow Depth

Station Depth Elevation

Earthquake Activity

City Distance Mag. Time & Date
Minimum magnitude displayed is 2.5.

Coastal Water Temperatures

Place Temperature

Stations

Nearby Weather Stations

Station Location Temp. Windchill Dew Point Humidity Wind Precip. Elev Updated Type